Weather at Vance W. Amory International Airport

Public forecast

Using degrees Celsius for public forecast. Weather courtesy of forecast.io.

Current aviation weather report (METAR) for Vance W. Amory International Airport

Retrieved 2021/04/20 12:00 UTC (26 minutes ago):

TKPN 201200Z 08012KT 9999 FEW022 28/22 Q1019

Aviation forecast (TAF) for Vance W. Amory International Airport

Retrieved 2021/04/20 12:03 UTC (23 minutes ago):

TAF TKPN 171100Z 1712/1812 12010KT 9999 FEW022